createdAt,value
2022-08-05T00:01:35.532Z,6.80
2022-08-05T00:04:08.418Z,6.80
2022-08-05T00:06:37.223Z,7.13
2022-08-05T00:09:12.945Z,6.67
2022-08-05T00:11:48.293Z,6.80
2022-08-05T00:14:19.657Z,6.60
2022-08-05T00:16:52.398Z,7.00
2022-08-05T00:19:21.584Z,7.87
2022-08-05T00:21:50.748Z,7.80
2022-08-05T00:24:24.726Z,6.70
2022-08-05T00:26:53.403Z,7.00
2022-08-05T00:29:22.743Z,6.80
2022-08-05T00:32:10.576Z,7.37
2022-08-05T00:34:55.795Z,7.57
2022-08-05T00:37:50.856Z,6.70
2022-08-05T00:40:28.252Z,6.40
2022-08-05T00:42:58.491Z,6.90
2022-08-05T00:45:38.716Z,6.40
2022-08-05T00:48:12.393Z,6.60
2022-08-05T00:50:42.037Z,7.10
2022-08-05T00:54:01.162Z,6.77
2022-08-05T00:56:02.505Z,7.33
2022-08-05T00:58:30.499Z,7.47
2022-08-05T01:00:58.683Z,6.87
2022-08-05T01:03:30.847Z,6.73
2022-08-05T01:06:01.564Z,7.23
2022-08-05T01:08:42.853Z,6.73
2022-08-05T01:11:22.283Z,6.10
2022-08-05T01:14:03.105Z,6.70
2022-08-05T01:16:34.133Z,6.80
2022-08-05T01:19:16.226Z,5.80
2022-08-05T01:22:18.988Z,6.33
2022-08-05T01:25:07.699Z,6.70
2022-08-05T01:28:06.114Z,6.17
2022-08-05T01:30:39.539Z,6.50
2022-08-05T01:33:09.489Z,6.80
2022-08-05T01:35:50.607Z,6.03
2022-08-05T01:38:24.911Z,6.67
2022-08-05T01:40:59.354Z,6.60
2022-08-05T01:43:29.282Z,6.70
2022-08-05T01:45:59.995Z,6.37
2022-08-05T01:48:36.740Z,7.50
2022-08-05T01:51:12.127Z,6.90
2022-08-05T01:53:56.914Z,6.50
2022-08-05T01:58:10.631Z,6.60
2022-08-05T01:59:21.410Z,6.60
2022-08-05T02:01:51.217Z,7.70
2022-08-05T02:04:23.811Z,7.53
2022-08-05T02:06:53.790Z,7.00
2022-08-05T02:09:22.095Z,6.70
2022-08-05T02:11:57.350Z,7.87
2022-08-05T02:14:31.862Z,7.37
2022-08-05T02:17:05.341Z,6.90
2022-08-05T02:19:47.403Z,7.60
2022-08-05T02:22:26.512Z,7.27
2022-08-05T02:25:08.182Z,7.33
2022-08-05T02:27:58.224Z,7.40
2022-08-05T02:30:34.503Z,6.60
2022-08-05T02:33:03.683Z,8.03
2022-08-05T02:35:38.564Z,8.07
2022-08-05T02:38:20.051Z,8.73
2022-08-05T02:40:55.037Z,7.27
2022-08-05T02:43:23.842Z,6.77
2022-08-05T02:45:54.502Z,7.13
2022-08-05T02:48:29.096Z,7.80
2022-08-05T02:50:59.402Z,7.10
2022-08-05T02:53:27.682Z,7.80
2022-08-05T02:56:01.074Z,7.80
2022-08-05T02:58:30.798Z,8.13
2022-08-05T03:01:02.835Z,8.23
2022-08-05T03:03:33.708Z,7.90
2022-08-05T03:06:54.335Z,7.30
2022-08-05T03:09:09.540Z,7.37
2022-08-05T03:11:54.522Z,7.77
2022-08-05T03:14:26.252Z,8.13
2022-08-05T03:16:55.695Z,8.03
2022-08-05T03:19:33.776Z,8.67
2022-08-05T03:22:04.837Z,9.37
2022-08-05T03:24:44.648Z,9.17
2022-08-05T03:27:15.929Z,9.80
2022-08-05T03:29:45.200Z,9.90
2022-08-05T03:32:33.799Z,8.87
2022-08-05T03:35:04.464Z,8.83
2022-08-05T03:37:40.994Z,7.87
2022-08-05T03:40:15.384Z,7.50
2022-08-05T03:42:52.944Z,8.67
2022-08-05T03:45:23.298Z,8.60
2022-08-05T03:47:57.032Z,8.63
2022-08-05T03:50:26.857Z,8.30
2022-08-05T03:55:49.715Z,8.57
2022-08-05T03:56:10.299Z,7.87
2022-08-05T03:58:47.451Z,8.40
2022-08-05T04:01:21.139Z,9.17
2022-08-05T04:04:09.228Z,8.10
2022-08-05T04:06:47.472Z,8.30
2022-08-05T04:09:26.013Z,8.43
2022-08-05T04:11:56.459Z,7.93
2022-08-05T04:14:30.024Z,8.37
2022-08-05T04:16:59.473Z,7.80
2022-08-05T04:19:29.239Z,8.23
2022-08-05T04:22:08.359Z,8.20
2022-08-05T04:24:38.751Z,8.23
2022-08-05T04:27:13.855Z,8.83
2022-08-05T04:29:43.476Z,7.60
2022-08-05T04:32:11.747Z,8.90
2022-08-05T04:34:43.215Z,7.33
2022-08-05T04:37:11.622Z,7.70
2022-08-05T04:39:40.870Z,8.23
2022-08-05T04:42:10.028Z,8.03
2022-08-05T04:44:38.972Z,7.83
2022-08-05T04:47:18.720Z,8.83
2022-08-05T04:50:02.733Z,8.30
2022-08-05T04:52:37.691Z,7.53
2022-08-05T04:55:14.944Z,8.47
2022-08-05T04:57:47.767Z,7.47
2022-08-05T05:00:16.958Z,7.10
2022-08-05T05:02:45.014Z,7.37
2022-08-05T05:05:16.611Z,6.90
2022-08-05T05:07:56.495Z,5.90
2022-08-05T05:10:29.606Z,6.13
2022-08-05T05:12:57.979Z,5.60
2022-08-05T05:15:56.689Z,5.80
2022-08-05T05:18:15.303Z,5.40
2022-08-05T05:20:58.507Z,5.23
2022-08-05T05:23:26.683Z,5.80
2022-08-05T05:25:54.614Z,5.67
2022-08-05T05:28:24.863Z,4.90
2022-08-05T05:30:52.925Z,5.60
2022-08-05T05:33:23.387Z,5.40
2022-08-05T05:35:51.818Z,4.83
2022-08-05T05:38:27.163Z,5.40
2022-08-05T05:40:56.374Z,5.47
2022-08-05T05:43:57.193Z,5.03
2022-08-05T05:46:15.935Z,4.97
2022-08-05T05:48:46.102Z,5.47
2022-08-05T05:51:23.225Z,4.70
2022-08-05T05:53:57.624Z,4.60
2022-08-05T05:56:32.708Z,5.17
2022-08-05T05:59:05.326Z,4.17
2022-08-05T06:01:37.506Z,4.90
2022-08-05T06:04:06.967Z,4.20
2022-08-05T06:06:35.499Z,4.70
2022-08-05T06:09:05.492Z,4.63
2022-08-05T06:11:35.520Z,4.50
2022-08-05T06:14:07.433Z,4.70
2022-08-05T06:16:37.339Z,4.20
2022-08-05T06:19:07.401Z,4.07
2022-08-05T06:21:38.705Z,4.50
2022-08-05T06:24:12.706Z,3.90
2022-08-05T06:26:51.571Z,4.80
2022-08-05T06:29:25.349Z,4.40
2022-08-05T06:32:21.281Z,4.43
2022-08-05T06:34:56.826Z,4.40
2022-08-05T06:37:56.355Z,4.20
2022-08-05T06:40:18.570Z,4.63
2022-08-05T06:42:51.543Z,4.80
2022-08-05T06:45:45.034Z,3.90
2022-08-05T06:48:36.777Z,3.87
2022-08-05T06:50:58.056Z,4.00
2022-08-05T06:53:28.258Z,4.07
2022-08-05T06:55:59.313Z,4.30
2022-08-05T06:58:34.779Z,4.60
2022-08-05T07:01:05.762Z,4.07
2022-08-05T07:03:34.747Z,4.73
2022-08-05T07:06:05.757Z,4.20
2022-08-05T07:08:43.228Z,4.07
2022-08-05T07:11:22.268Z,4.03
2022-08-05T07:14:08.460Z,4.73
2022-08-05T07:17:59.113Z,4.00
2022-08-05T07:20:23.181Z,3.90
2022-08-05T07:22:30.165Z,4.60
2022-08-05T07:25:22.868Z,4.40
2022-08-05T07:27:58.206Z,4.60
2022-08-05T07:30:34.019Z,4.63
2022-08-05T07:33:05.571Z,4.00
2022-08-05T07:36:03.792Z,4.60
2022-08-05T07:38:33.186Z,4.57
2022-08-05T07:42:07.277Z,3.90
2022-08-05T07:43:52.808Z,4.23
2022-08-05T07:46:26.027Z,4.27
2022-08-05T07:49:03.820Z,4.47
2022-08-05T07:51:40.554Z,3.77
2022-08-05T07:54:10.529Z,4.50
2022-08-05T07:57:01.677Z,4.70
2022-08-05T07:59:38.109Z,4.70
2022-08-05T08:02:15.435Z,4.20
2022-08-05T08:04:44.820Z,4.00
2022-08-05T08:07:13.570Z,4.43
2022-08-05T08:09:41.536Z,4.40
2022-08-05T08:12:20.986Z,4.17
2022-08-05T08:15:02.220Z,4.13
2022-08-05T08:17:30.932Z,3.90
2022-08-05T08:20:22.694Z,4.30
2022-08-05T08:22:52.188Z,4.30
2022-08-05T08:25:26.784Z,4.30
2022-08-05T08:28:11.421Z,3.97
2022-08-05T08:30:50.084Z,4.00
2022-08-05T08:33:19.246Z,3.90
2022-08-05T08:35:53.750Z,3.80
2022-08-05T08:38:32.240Z,4.40
2022-08-05T08:41:07.253Z,4.10
2022-08-05T08:45:25.407Z,4.40
2022-08-05T08:46:28.713Z,4.50
2022-08-05T08:49:06.368Z,3.77
2022-08-05T08:52:04.127Z,4.67
2022-08-05T08:54:36.503Z,5.40
2022-08-05T08:57:11.450Z,4.20
2022-08-05T08:59:41.835Z,4.20
2022-08-05T09:02:18.988Z,4.40
2022-08-05T09:05:15.954Z,4.33
2022-08-05T09:07:40.060Z,3.97
2022-08-05T09:10:27.667Z,4.23
2022-08-05T09:12:56.842Z,4.20
2022-08-05T09:15:37.136Z,3.60
2022-08-05T09:18:09.434Z,3.60
2022-08-05T09:20:38.332Z,3.67
2022-08-05T09:23:19.242Z,3.97
2022-08-05T09:26:01.098Z,3.90
2022-08-05T09:28:32.764Z,3.73
2022-08-05T09:31:18.303Z,3.70
2022-08-05T09:33:53.843Z,3.97
2022-08-05T09:36:27.769Z,3.83
2022-08-05T09:39:03.888Z,4.10
2022-08-05T09:41:58.472Z,4.37
2022-08-05T09:44:40.131Z,4.10
2022-08-05T09:47:15.364Z,3.93
2022-08-05T09:49:55.005Z,4.10
2022-08-05T09:52:31.427Z,4.63
2022-08-05T09:55:55.654Z,4.10
2022-08-05T09:57:49.188Z,4.90
2022-08-05T10:00:25.909Z,4.03
2022-08-05T10:02:58.038Z,4.30
2022-08-05T10:05:32.665Z,4.87
2022-08-05T10:08:35.379Z,4.43
2022-08-05T10:10:54.166Z,3.77
2022-08-05T10:13:47.370Z,4.83
2022-08-05T10:16:41.553Z,4.40
2022-08-05T10:19:23.770Z,4.70
2022-08-05T10:22:01.693Z,4.67
2022-08-05T10:24:29.961Z,4.17
2022-08-05T10:27:01.464Z,4.80
2022-08-05T10:30:41.080Z,4.50
2022-08-05T10:32:54.589Z,4.23
2022-08-05T10:35:10.421Z,4.40
2022-08-05T10:37:45.209Z,3.83
2022-08-05T10:40:28.079Z,3.80
2022-08-05T10:43:02.683Z,4.00
2022-08-05T10:45:40.448Z,3.87
2022-08-05T10:48:40.673Z,4.30
2022-08-05T10:51:23.122Z,3.90
2022-08-05T10:54:00.871Z,3.70
2022-08-05T10:56:31.794Z,3.83
2022-08-05T10:59:07.278Z,4.00
2022-08-05T11:01:54.512Z,3.70
2022-08-05T11:04:26.138Z,4.00
2022-08-05T11:07:08.978Z,3.93
2022-08-05T11:09:46.488Z,3.60
2022-08-05T11:12:54.424Z,4.00
2022-08-05T11:16:00.708Z,4.00
2022-08-05T11:18:27.433Z,3.50
2022-08-05T11:20:59.035Z,4.10
2022-08-05T11:23:33.264Z,4.07
2022-08-05T11:26:09.170Z,3.83
2022-08-05T11:28:47.808Z,3.50
2022-08-05T11:31:57.877Z,3.60
2022-08-05T11:34:37.251Z,3.53
2022-08-05T11:37:06.227Z,4.47
2022-08-05T11:39:55.419Z,4.00
2022-08-05T11:42:30.356Z,3.43
2022-08-05T11:45:03.573Z,3.70
2022-08-05T11:47:48.467Z,3.80
2022-08-05T11:50:17.200Z,3.40
2022-08-05T11:52:46.248Z,3.70
2022-08-05T11:55:17.697Z,3.47
2022-08-05T11:58:09.711Z,3.63
2022-08-05T12:00:37.809Z,3.73
2022-08-05T12:03:29.215Z,3.80
2022-08-05T12:06:05.916Z,3.30
2022-08-05T12:08:49.908Z,2.97
2022-08-05T12:11:21.520Z,3.77
2022-08-05T12:14:03.895Z,3.50
2022-08-05T12:16:34.686Z,4.10
2022-08-05T12:19:08.349Z,3.73
2022-08-05T12:21:39.046Z,3.33
2022-08-05T12:24:09.381Z,3.50
2022-08-05T12:26:38.993Z,3.33
2022-08-05T12:29:16.334Z,3.90
2022-08-05T12:31:49.906Z,3.20
2022-08-05T12:34:23.581Z,3.53
2022-08-05T12:36:53.404Z,3.13
2022-08-05T12:39:21.724Z,3.10
2022-08-05T12:41:58.038Z,3.20
2022-08-05T12:44:33.634Z,3.10
2022-08-05T12:47:03.591Z,3.30
2022-08-05T12:50:04.139Z,3.40
2022-08-05T12:52:35.378Z,3.37
2022-08-05T12:55:22.689Z,3.40
2022-08-05T12:58:50.286Z,3.70
2022-08-05T13:02:00.940Z,3.37
2022-08-05T13:03:33.273Z,3.53
2022-08-05T13:06:01.535Z,3.43
2022-08-05T13:08:32.136Z,3.60
2022-08-05T13:11:01.954Z,3.70
2022-08-05T13:14:06.378Z,4.37
2022-08-05T13:16:20.837Z,3.07
2022-08-05T13:18:57.932Z,2.93
2022-08-05T13:21:28.349Z,2.80
2022-08-05T13:24:08.796Z,3.60
2022-08-05T13:26:37.055Z,3.00
2022-08-05T13:29:05.416Z,3.07
2022-08-05T13:32:04.350Z,2.97
2022-08-05T13:34:26.069Z,3.63
2022-08-05T13:36:54.692Z,3.67
2022-08-05T13:39:24.418Z,2.83
2022-08-05T13:42:14.630Z,3.70
2022-08-05T13:44:45.828Z,3.60
2022-08-05T13:47:35.129Z,3.57
2022-08-05T13:50:06.627Z,3.40
2022-08-05T13:52:37.650Z,3.00
2022-08-05T13:55:08.030Z,3.33
2022-08-05T13:57:50.775Z,3.57
2022-08-05T14:00:26.921Z,3.70
2022-08-05T14:02:57.177Z,3.33
2022-08-05T14:05:29.516Z,3.77
2022-08-05T14:08:21.056Z,3.60
2022-08-05T14:10:59.812Z,3.83
2022-08-05T14:13:44.139Z,3.93
2022-08-05T14:16:16.999Z,3.40
2022-08-05T14:18:46.607Z,3.30
2022-08-05T14:22:07.517Z,3.67
2022-08-05T14:24:02.532Z,3.53
2022-08-05T14:26:38.313Z,3.07
2022-08-05T14:29:16.025Z,3.43
2022-08-05T14:32:03.209Z,3.80
2022-08-05T14:34:35.076Z,3.07
2022-08-05T14:37:04.235Z,3.70
2022-08-05T14:39:50.259Z,3.63
2022-08-05T14:42:22.279Z,3.50
2022-08-05T14:44:50.307Z,3.63
2022-08-05T14:48:02.437Z,3.60
2022-08-05T14:50:17.466Z,3.30
2022-08-05T14:52:57.663Z,3.20
2022-08-05T14:55:38.638Z,3.70
2022-08-05T14:58:10.912Z,3.13
2022-08-05T15:00:59.093Z,3.50
2022-08-05T15:03:33.623Z,3.40
2022-08-05T15:06:14.833Z,3.43
2022-08-05T15:08:58.755Z,3.50
2022-08-05T15:11:52.043Z,2.60
2022-08-05T15:14:35.726Z,3.83
2022-08-05T15:17:45.657Z,4.70
2022-08-05T15:19:58.060Z,3.87
2022-08-05T15:22:28.342Z,3.87
2022-08-05T15:24:56.867Z,3.47
2022-08-05T15:27:25.673Z,4.90
2022-08-05T15:29:56.526Z,3.77
2022-08-05T15:32:27.506Z,3.23
2022-08-05T15:34:57.199Z,3.23
2022-08-05T15:38:32.740Z,3.83
2022-08-05T15:41:04.617Z,3.40
2022-08-05T15:43:10.846Z,3.53
2022-08-05T15:45:45.534Z,3.60
2022-08-05T15:48:15.041Z,3.33
2022-08-05T15:50:43.772Z,3.30
2022-08-05T15:53:13.649Z,3.60
2022-08-05T15:56:03.545Z,2.83
2022-08-05T15:58:35.519Z,3.20
2022-08-05T16:01:17.215Z,3.40
2022-08-05T16:03:48.344Z,3.50
2022-08-05T16:06:19.988Z,2.87
2022-08-05T16:08:50.963Z,2.83
2022-08-05T16:11:40.006Z,4.00
2022-08-05T16:14:08.965Z,3.10
2022-08-05T16:16:37.186Z,3.50
2022-08-05T16:19:05.213Z,3.60
2022-08-05T16:22:00.161Z,3.80
2022-08-05T16:24:41.655Z,12.20
2022-08-05T16:27:15.972Z,3.30
2022-08-05T16:29:50.394Z,3.37
2022-08-05T16:32:28.646Z,3.37
2022-08-05T16:34:58.784Z,4.27
2022-08-05T16:38:15.362Z,3.53
2022-08-05T16:40:29.229Z,3.60
2022-08-05T16:42:59.183Z,3.90
2022-08-05T16:46:06.026Z,4.00
2022-08-05T16:48:25.568Z,3.77
2022-08-05T16:51:01.848Z,3.90
2022-08-05T16:53:32.485Z,3.40
2022-08-05T16:56:18.281Z,3.30
2022-08-05T16:58:49.157Z,3.57
2022-08-05T17:01:18.688Z,3.37
2022-08-05T17:03:47.084Z,4.37
2022-08-05T17:06:16.780Z,4.10
2022-08-05T17:08:53.374Z,4.20
2022-08-05T17:11:23.961Z,3.97
2022-08-05T17:14:05.347Z,3.67
2022-08-05T17:16:36.742Z,4.27
2022-08-05T17:19:07.709Z,4.03
2022-08-05T17:21:39.826Z,3.90
2022-08-05T17:24:30.180Z,4.20
2022-08-05T17:26:57.562Z,4.20
2022-08-05T17:29:39.829Z,5.00
2022-08-05T17:32:11.880Z,4.37
2022-08-05T17:34:47.475Z,4.07
2022-08-05T17:37:29.483Z,4.10
2022-08-05T17:40:10.696Z,3.80
2022-08-05T17:42:42.952Z,4.10
2022-08-05T17:45:21.855Z,3.90
2022-08-05T17:47:54.661Z,4.63
2022-08-05T17:50:28.406Z,4.37
2022-08-05T17:52:59.057Z,4.37
2022-08-05T17:55:38.163Z,4.47
2022-08-05T17:58:11.043Z,4.37
2022-08-05T18:00:45.172Z,4.07
2022-08-05T18:03:39.322Z,4.60
2022-08-05T18:06:10.858Z,4.83
2022-08-05T18:08:44.234Z,4.23
2022-08-05T18:11:24.113Z,4.50
2022-08-05T18:14:01.024Z,4.13
2022-08-05T18:16:33.465Z,4.10
2022-08-05T18:19:01.712Z,3.53
2022-08-05T18:22:08.963Z,4.13
2022-08-05T18:24:17.748Z,3.40
2022-08-05T18:26:45.674Z,3.97
2022-08-05T18:29:16.891Z,3.90
2022-08-05T18:31:46.364Z,4.00
2022-08-05T18:34:17.713Z,3.93
2022-08-05T18:36:49.897Z,4.17
2022-08-05T18:39:42.399Z,3.90
2022-08-05T18:42:19.012Z,4.07
2022-08-05T18:44:49.368Z,4.43
2022-08-05T18:47:26.899Z,4.20
2022-08-05T18:50:13.466Z,4.63
2022-08-05T18:52:51.410Z,4.20
2022-08-05T18:55:20.445Z,3.90
2022-08-05T18:57:52.844Z,3.87
2022-08-05T19:00:27.021Z,4.40
2022-08-05T19:03:04.080Z,3.37
2022-08-05T19:06:11.398Z,3.70
2022-08-05T19:08:22.480Z,4.40
2022-08-05T19:11:04.629Z,4.03
2022-08-05T19:13:36.172Z,4.43
2022-08-05T19:16:22.202Z,3.73
2022-08-05T19:18:56.783Z,3.73
2022-08-05T19:21:27.536Z,3.87
2022-08-05T19:24:05.087Z,3.57
2022-08-05T19:26:54.290Z,3.53
2022-08-05T19:29:23.833Z,3.80
2022-08-05T19:31:55.389Z,3.83
2022-08-05T19:34:26.908Z,3.77
2022-08-05T19:36:54.874Z,4.10
2022-08-05T19:39:23.316Z,3.53
2022-08-05T19:42:06.134Z,3.90
2022-08-05T19:44:45.199Z,4.30
2022-08-05T19:47:16.111Z,4.90
2022-08-05T19:49:48.012Z,3.90
2022-08-05T19:52:30.907Z,3.80
2022-08-05T19:55:06.933Z,3.83
2022-08-05T19:58:06.805Z,4.00
2022-08-05T20:00:37.765Z,3.40
2022-08-05T20:03:09.059Z,3.37
2022-08-05T20:05:50.123Z,3.57
2022-08-05T20:08:18.872Z,3.80
2022-08-05T20:10:49.733Z,3.87
2022-08-05T20:13:29.837Z,4.00
2022-08-05T20:16:06.856Z,4.10
2022-08-05T20:18:36.310Z,3.63
2022-08-05T20:21:06.975Z,3.87
2022-08-05T20:23:40.177Z,3.20
2022-08-05T20:26:19.795Z,3.43
2022-08-05T20:28:50.363Z,4.43
2022-08-05T20:31:21.886Z,3.93
2022-08-05T20:33:51.234Z,3.63
2022-08-05T20:36:21.524Z,3.50
2022-08-05T20:38:54.546Z,3.67
2022-08-05T20:41:44.147Z,3.67
2022-08-05T20:44:18.945Z,4.00
2022-08-05T20:46:57.021Z,3.43
2022-08-05T20:49:26.138Z,3.10
2022-08-05T20:51:57.378Z,4.10
2022-08-05T20:54:43.479Z,4.10
2022-08-05T20:57:21.421Z,3.70
2022-08-05T21:00:21.295Z,3.93
2022-08-05T21:02:51.439Z,4.30
2022-08-05T21:05:20.111Z,3.90
2022-08-05T21:07:52.123Z,4.03
2022-08-05T21:10:21.564Z,3.77
2022-08-05T21:13:08.207Z,3.67
2022-08-05T21:15:38.218Z,4.20
2022-08-05T21:18:06.301Z,3.73
2022-08-05T21:20:35.192Z,4.10
2022-08-05T21:23:05.285Z,3.90
2022-08-05T21:25:34.424Z,3.70
2022-08-05T21:28:02.822Z,4.20
2022-08-05T21:30:31.423Z,4.50
2022-08-05T21:32:59.836Z,4.20
2022-08-05T21:35:55.684Z,3.90
2022-08-05T21:38:20.108Z,3.90
2022-08-05T21:40:48.152Z,4.27
2022-08-05T21:43:24.836Z,3.40
2022-08-05T21:45:56.773Z,4.00
2022-08-05T21:48:28.854Z,3.90
2022-08-05T21:50:57.351Z,3.90
2022-08-05T21:53:27.138Z,3.70
2022-08-05T21:56:04.410Z,3.37
2022-08-05T21:58:34.666Z,4.13
2022-08-05T22:01:05.586Z,4.50
2022-08-05T22:03:52.102Z,4.10
2022-08-05T22:06:35.443Z,4.40
2022-08-05T22:09:15.145Z,4.03
2022-08-05T22:11:48.873Z,4.20
2022-08-05T22:14:33.277Z,3.90
2022-08-05T22:17:06.911Z,4.67
2022-08-05T22:20:03.255Z,4.23
2022-08-05T22:22:27.186Z,4.30
2022-08-05T22:25:21.874Z,5.17
2022-08-05T22:28:08.470Z,4.20
2022-08-05T22:30:55.578Z,3.83
2022-08-05T22:33:57.026Z,4.00
2022-08-05T22:36:14.280Z,4.20
2022-08-05T22:38:42.976Z,4.20
2022-08-05T22:41:12.645Z,4.30
2022-08-05T22:43:43.203Z,4.67
2022-08-05T22:46:13.714Z,4.40
2022-08-05T22:48:51.726Z,4.33
2022-08-05T22:51:23.340Z,4.50
2022-08-05T22:54:07.742Z,4.40
2022-08-05T22:56:39.987Z,4.90
2022-08-05T22:59:45.459Z,4.43
2022-08-05T23:02:05.610Z,4.20
2022-08-05T23:04:36.009Z,4.20
2022-08-05T23:07:04.149Z,3.87
2022-08-05T23:09:58.200Z,4.47
2022-08-05T23:12:24.576Z,4.30
2022-08-05T23:14:52.762Z,4.30
2022-08-05T23:17:34.851Z,4.17
2022-08-05T23:20:10.448Z,4.90
2022-08-05T23:22:47.815Z,4.33
2022-08-05T23:25:51.634Z,4.20
2022-08-05T23:28:07.734Z,4.43
2022-08-05T23:30:39.962Z,4.67
2022-08-05T23:33:22.118Z,4.30
2022-08-05T23:35:56.256Z,4.37
2022-08-05T23:38:26.069Z,4.20
2022-08-05T23:40:54.935Z,4.17
2022-08-05T23:43:37.334Z,4.30
2022-08-05T23:46:20.004Z,4.50
2022-08-05T23:49:01.228Z,4.17
2022-08-05T23:51:53.985Z,4.43
2022-08-05T23:54:25.587Z,4.70
2022-08-05T23:56:55.818Z,4.60
